sensor_id;sensor_type;location;lat;lon;timestamp;pressure;altitude;pressure_sealevel;temperature;humidity
80323;BME280;69636;52.372;13.610;2024-02-21T00:00:02;101832.22;;;6.77;100.00
80323;BME280;69636;52.372;13.610;2024-02-21T00:02:30;101827.84;;;6.91;100.00
80323;BME280;69636;52.372;13.610;2024-02-21T00:04:57;101821.91;;;6.87;100.00
80323;BME280;69636;52.372;13.610;2024-02-21T00:07:26;101820.88;;;6.90;100.00
80323;BME280;69636;52.372;13.610;2024-02-21T00:09:53;101821.06;;;6.87;100.00
80323;BME280;69636;52.372;13.610;2024-02-21T00:12:21;101812.22;;;6.88;100.00
80323;BME280;69636;52.372;13.610;2024-02-21T00:14:48;101818.31;;;6.88;100.00
80323;BME280;69636;52.372;13.610;2024-02-21T00:17:15;101810.31;;;6.90;100.00
80323;BME280;69636;52.372;13.610;2024-02-21T00:19:43;101806.09;;;7.00;100.00
80323;BME280;69636;52.372;13.610;2024-02-21T00:22:10;101801.25;;;6.94;100.00
80323;BME280;69636;52.372;13.610;2024-02-21T00:24:39;101807.88;;;6.87;100.00
80323;BME280;69636;52.372;13.610;2024-02-21T00:27:06;101796.38;;;6.88;100.00
80323;BME280;69636;52.372;13.610;2024-02-21T00:29:33;101795.97;;;6.94;100.00
80323;BME280;69636;52.372;13.610;2024-02-21T00:32:01;101796.38;;;6.88;100.00
80323;BME280;69636;52.372;13.610;2024-02-21T00:34:28;101794.69;;;6.87;100.00
80323;BME280;69636;52.372;13.610;2024-02-21T00:36:55;101792.38;;;6.95;100.00
80323;BME280;69636;52.372;13.610;2024-02-21T00:39:23;101786.88;;;6.98;100.00
80323;BME280;69636;52.372;13.610;2024-02-21T00:41:51;101787.50;;;6.89;100.00
80323;BME280;69636;52.372;13.610;2024-02-21T00:44:19;101790.56;;;6.82;100.00
80323;BME280;69636;52.372;13.610;2024-02-21T00:46:46;101787.72;;;6.86;100.00
80323;BME280;69636;52.372;13.610;2024-02-21T00:49:14;101790.28;;;7.00;100.00
80323;BME280;69636;52.372;13.610;2024-02-21T00:51:41;101782.88;;;6.92;100.00
80323;BME280;69636;52.372;13.610;2024-02-21T00:54:08;101769.78;;;6.91;100.00
80323;BME280;69636;52.372;13.610;2024-02-21T00:56:36;101782.88;;;6.92;100.00
80323;BME280;69636;52.372;13.610;2024-02-21T00:59:05;101778.63;;;6.90;100.00
80323;BME280;69636;52.372;13.610;2024-02-21T01:01:32;101777.91;;;6.88;100.00
80323;BME280;69636;52.372;13.610;2024-02-21T01:03:59;101763.66;;;6.90;100.00
80323;BME280;69636;52.372;13.610;2024-02-21T01:06:27;101761.31;;;6.86;100.00
80323;BME280;69636;52.372;13.610;2024-02-21T01:08:54;101771.03;;;6.85;100.00
80323;BME280;69636;52.372;13.610;2024-02-21T01:11:21;101765.84;;;6.84;100.00
80323;BME280;69636;52.372;13.610;2024-02-21T01:13:49;101768.28;;;6.87;100.00
80323;BME280;69636;52.372;13.610;2024-02-21T01:16:18;101765.84;;;6.84;100.00
80323;BME280;69636;52.372;13.610;2024-02-21T01:18:45;101759.81;;;6.81;100.00
80323;BME280;69636;52.372;13.610;2024-02-21T01:21:13;101754.34;;;6.85;100.00
80323;BME280;69636;52.372;13.610;2024-02-21T01:23:40;101753.19;;;6.89;100.00
80323;BME280;69636;52.372;13.610;2024-02-21T01:26:07;101748.66;;;6.91;100.00
80323;BME280;69636;52.372;13.610;2024-02-21T01:28:35;101753.72;;;6.94;100.00
80323;BME280;69636;52.372;13.610;2024-02-21T01:31:02;101746.22;;;6.88;100.00
80323;BME280;69636;52.372;13.610;2024-02-21T01:33:31;101748.22;;;6.84;100.00
80323;BME280;69636;52.372;13.610;2024-02-21T01:35:58;101747.28;;;6.85;100.00
80323;BME280;69636;52.372;13.610;2024-02-21T01:38:26;101745.69;;;6.82;100.00
80323;BME280;69636;52.372;13.610;2024-02-21T01:40:53;101734.91;;;6.86;100.00
80323;BME280;69636;52.372;13.610;2024-02-21T01:43:21;101736.59;;;6.87;100.00
80323;BME280;69636;52.372;13.610;2024-02-21T01:45:51;101736.41;;;6.90;100.00
80323;BME280;69636;52.372;13.610;2024-02-21T01:48:19;101735.44;;;6.91;100.00
80323;BME280;69636;52.372;13.610;2024-02-21T01:50:49;101734.19;;;6.96;100.00
80323;BME280;69636;52.372;13.610;2024-02-21T01:53:18;101723.84;;;6.93;100.00
80323;BME280;69636;52.372;13.610;2024-02-21T01:55:47;101731.66;;;6.95;100.00
80323;BME280;69636;52.372;13.610;2024-02-21T01:58:15;101727.34;;;6.94;100.00
80323;BME280;69636;52.372;13.610;2024-02-21T02:00:43;101719.69;;;7.02;100.00
80323;BME280;69636;52.372;13.610;2024-02-21T02:03:11;101721.84;;;6.97;100.00
80323;BME280;69636;52.372;13.610;2024-02-21T02:05:38;101712.53;;;7.04;100.00
80323;BME280;69636;52.372;13.610;2024-02-21T02:08:07;101718.03;;;7.01;100.00
80323;BME280;69636;52.372;13.610;2024-02-21T02:10:35;101717.81;;;7.04;100.00
80323;BME280;69636;52.372;13.610;2024-02-21T02:13:02;101710.72;;;7.04;100.00
80323;BME280;69636;52.372;13.610;2024-02-21T02:15:37;101701.75;;;7.07;100.00
80323;BME280;69636;52.372;13.610;2024-02-21T02:18:05;101702.06;;;7.02;100.00
80323;BME280;69636;52.372;13.610;2024-02-21T02:20:33;101698.16;;;7.08;100.00
80323;BME280;69636;52.372;13.610;2024-02-21T02:23:06;101697.63;;;7.03;100.00
80323;BME280;69636;52.372;13.610;2024-02-21T02:25:35;101702.19;;;7.01;100.00
80323;BME280;69636;52.372;13.610;2024-02-21T02:28:03;101697.88;;;7.00;100.00
80323;BME280;69636;52.372;13.610;2024-02-21T02:30:33;101685.38;;;7.02;100.00
80323;BME280;69636;52.372;13.610;2024-02-21T02:33:00;101687.91;;;7.03;100.00
80323;BME280;69636;52.372;13.610;2024-02-21T02:35:28;101674.59;;;7.05;100.00
80323;BME280;69636;52.372;13.610;2024-02-21T02:37:55;101683.38;;;7.05;100.00
80323;BME280;69636;52.372;13.610;2024-02-21T02:40:22;101680.34;;;6.99;100.00
80323;BME280;69636;52.372;13.610;2024-02-21T02:42:52;101685.50;;;6.88;100.00
80323;BME280;69636;52.372;13.610;2024-02-21T02:45:19;101678.53;;;6.87;100.00
80323;BME280;69636;52.372;13.610;2024-02-21T02:47:46;101680.38;;;6.73;100.00
80323;BME280;69636;52.372;13.610;2024-02-21T02:50:14;101675.50;;;6.67;100.00
80323;BME280;69636;52.372;13.610;2024-02-21T02:52:41;101680.66;;;6.56;100.00
80323;BME280;69636;52.372;13.610;2024-02-21T02:55:09;101684.25;;;6.55;100.00
80323;BME280;69636;52.372;13.610;2024-02-21T02:57:36;101685.41;;;6.51;100.00
80323;BME280;69636;52.372;13.610;2024-02-21T03:00:06;101684.44;;;6.52;100.00
80323;BME280;69636;52.372;13.610;2024-02-21T03:02:34;101673.50;;;6.45;100.00
80323;BME280;69636;52.372;13.610;2024-02-21T03:05:11;101676.88;;;6.47;100.00
80323;BME280;69636;52.372;13.610;2024-02-21T03:07:39;101666.72;;;6.41;100.00
80323;BME280;69636;52.372;13.610;2024-02-21T03:10:07;101662.06;;;6.32;100.00
80323;BME280;69636;52.372;13.610;2024-02-21T03:12:34;101656.06;;;6.30;100.00
80323;BME280;69636;52.372;13.610;2024-02-21T03:15:02;101659.53;;;6.31;100.00
80323;BME280;69636;52.372;13.610;2024-02-21T03:17:31;101653.53;;;6.29;100.00
80323;BME280;69636;52.372;13.610;2024-02-21T03:19:58;101655.63;;;6.24;100.00
80323;BME280;69636;52.372;13.610;2024-02-21T03:22:26;101649.94;;;6.30;100.00
80323;BME280;69636;52.372;13.610;2024-02-21T03:24:53;101642.75;;;6.32;100.00
80323;BME280;69636;52.372;13.610;2024-02-21T03:27:20;101636.66;;;6.31;100.00
80323;BME280;69636;52.372;13.610;2024-02-21T03:29:48;101649.84;;;6.31;100.00
80323;BME280;69636;52.372;13.610;2024-02-21T03:32:15;101641.91;;;6.31;100.00
80323;BME280;69636;52.372;13.610;2024-02-21T03:34:44;101647.41;;;6.28;100.00
80323;BME280;69636;52.372;13.610;2024-02-21T03:37:11;101644.88;;;6.27;100.00
80323;BME280;69636;52.372;13.610;2024-02-21T03:39:39;101637.81;;;6.27;100.00
80323;BME280;69636;52.372;13.610;2024-02-21T03:42:06;101631.28;;;6.33;100.00
80323;BME280;69636;52.372;13.610;2024-02-21T03:44:33;101632.22;;;6.32;100.00
80323;BME280;69636;52.372;13.610;2024-02-21T03:47:01;101636.97;;;6.27;100.00
80323;BME280;69636;52.372;13.610;2024-02-21T03:49:28;101633.56;;;6.25;100.00
80323;BME280;69636;52.372;13.610;2024-02-21T03:51:57;101633.81;;;6.22;100.00
80323;BME280;69636;52.372;13.610;2024-02-21T03:54:25;101631.69;;;6.27;100.00
80323;BME280;69636;52.372;13.610;2024-02-21T03:56:52;101635.25;;;6.26;100.00
80323;BME280;69636;52.372;13.610;2024-02-21T03:59:19;101631.88;;;6.24;100.00
80323;BME280;69636;52.372;13.610;2024-02-21T04:01:49;101624.94;;;6.23;100.00
80323;BME280;69636;52.372;13.610;2024-02-21T04:04:18;101607.44;;;6.22;100.00
80323;BME280;69636;52.372;13.610;2024-02-21T04:06:46;101605.88;;;6.19;100.00
80323;BME280;69636;52.372;13.610;2024-02-21T04:09:15;101609.84;;;6.25;100.00
80323;BME280;69636;52.372;13.610;2024-02-21T04:11:42;101600.03;;;6.27;100.00
80323;BME280;69636;52.372;13.610;2024-02-21T04:14:10;101599.44;;;6.23;100.00
80323;BME280;69636;52.372;13.610;2024-02-21T04:16:37;101602.38;;;6.19;100.00
80323;BME280;69636;52.372;13.610;2024-02-21T04:19:04;101603.31;;;6.18;100.00
80323;BME280;69636;52.372;13.610;2024-02-21T04:21:32;101601.75;;;6.15;100.00
80323;BME280;69636;52.372;13.610;2024-02-21T04:24:00;101602.28;;;6.20;100.00
80323;BME280;69636;52.372;13.610;2024-02-21T04:26:28;101592.03;;;6.16;100.00
80323;BME280;69636;52.372;13.610;2024-02-21T04:28:56;101594.75;;;6.27;100.00
80323;BME280;69636;52.372;13.610;2024-02-21T04:31:23;101579.41;;;6.21;100.00
80323;BME280;69636;52.372;13.610;2024-02-21T04:33:51;101578.97;;;6.14;100.00
80323;BME280;69636;52.372;13.610;2024-02-21T04:36:18;101567.78;;;6.10;100.00
80323;BME280;69636;52.372;13.610;2024-02-21T04:38:45;101560.00;;;6.22;100.00
80323;BME280;69636;52.372;13.610;2024-02-21T04:41:13;101551.34;;;6.20;100.00
80323;BME280;69636;52.372;13.610;2024-02-21T04:43:41;101554.91;;;6.19;100.00
80323;BME280;69636;52.372;13.610;2024-02-21T04:46:09;101544.78;;;6.12;100.00
80323;BME280;69636;52.372;13.610;2024-02-21T04:48:36;101542.47;;;6.21;100.00
80323;BME280;69636;52.372;13.610;2024-02-21T04:51:04;101539.84;;;6.21;100.00
80323;BME280;69636;52.372;13.610;2024-02-21T04:53:31;101539.31;;;6.16;100.00
80323;BME280;69636;52.372;13.610;2024-02-21T04:55:59;101521.38;;;6.33;100.00
80323;BME280;69636;52.372;13.610;2024-02-21T04:58:27;101514.94;;;6.25;100.00
80323;BME280;69636;52.372;13.610;2024-02-21T05:00:55;101518.75;;;6.21;100.00
80323;BME280;69636;52.372;13.610;2024-02-21T05:03:23;101511.91;;;6.18;100.00
80323;BME280;69636;52.372;13.610;2024-02-21T05:05:50;101512.53;;;6.22;100.00
80323;BME280;69636;52.372;13.610;2024-02-21T05:08:18;101508.72;;;6.26;100.00
80323;BME280;69636;52.372;13.610;2024-02-21T05:10:45;101502.28;;;6.42;100.00
80323;BME280;69636;52.372;13.610;2024-02-21T05:13:12;101509.44;;;6.28;100.00
80323;BME280;69636;52.372;13.610;2024-02-21T05:15:40;101511.69;;;6.21;100.00
80323;BME280;69636;52.372;13.610;2024-02-21T05:18:09;101495.31;;;6.29;100.00
80323;BME280;69636;52.372;13.610;2024-02-21T05:20:36;101500.38;;;6.32;100.00
80323;BME280;69636;52.372;13.610;2024-02-21T05:23:04;101510.41;;;6.27;100.00
80323;BME280;69636;52.372;13.610;2024-02-21T05:25:31;101506.72;;;6.17;100.00
80323;BME280;69636;52.372;13.610;2024-02-21T05:27:58;101507.38;;;6.20;100.00
80323;BME280;69636;52.372;13.610;2024-02-21T05:30:26;101503.69;;;6.23;100.00
80323;BME280;69636;52.372;13.610;2024-02-21T05:32:53;101508.94;;;6.23;100.00
80323;BME280;69636;52.372;13.610;2024-02-21T05:35:26;101506.41;;;6.21;100.00
80323;BME280;69636;52.372;13.610;2024-02-21T05:37:54;101500.94;;;6.11;100.00
80323;BME280;69636;52.372;13.610;2024-02-21T05:40:21;101508.94;;;6.10;100.00
80323;BME280;69636;52.372;13.610;2024-02-21T05:42:48;101499.47;;;6.20;100.00
80323;BME280;69636;52.372;13.610;2024-02-21T05:45:16;101505.78;;;6.18;100.00
80323;BME280;69636;52.372;13.610;2024-02-21T05:47:44;101502.00;;;6.22;100.00
80323;BME280;69636;52.372;13.610;2024-02-21T05:50:11;101508.31;;;6.19;100.00
80323;BME280;69636;52.372;13.610;2024-02-21T05:52:40;101499.75;;;6.28;100.00
80323;BME280;69636;52.372;13.610;2024-02-21T05:55:07;101512.09;;;6.28;100.00
80323;BME280;69636;52.372;13.610;2024-02-21T05:57:35;101514.22;;;6.23;100.00
80323;BME280;69636;52.372;13.610;2024-02-21T06:00:04;101510.59;;;6.24;100.00
80323;BME280;69636;52.372;13.610;2024-02-21T06:02:31;101501.16;;;6.21;100.00
80323;BME280;69636;52.372;13.610;2024-02-21T06:04:59;101501.53;;;6.28;100.00
80323;BME280;69636;52.372;13.610;2024-02-21T06:07:27;101502.28;;;6.30;100.00
80323;BME280;69636;52.372;13.610;2024-02-21T06:09:55;101499.63;;;6.30;100.00
80323;BME280;69636;52.372;13.610;2024-02-21T06:12:23;101500.06;;;6.24;100.00
80323;BME280;69636;52.372;13.610;2024-02-21T06:14:50;101500.91;;;6.24;100.00
80323;BME280;69636;52.372;13.610;2024-02-21T06:17:17;101496.47;;;6.25;100.00
80323;BME280;69636;52.372;13.610;2024-02-21T06:19:45;101492.03;;;6.25;100.00
80323;BME280;69636;52.372;13.610;2024-02-21T06:22:13;101487.63;;;6.26;100.00
80323;BME280;69636;52.372;13.610;2024-02-21T06:24:40;101488.97;;;6.31;100.00
80323;BME280;69636;52.372;13.610;2024-02-21T06:27:10;101488.66;;;6.36;100.00
80323;BME280;69636;52.372;13.610;2024-02-21T06:29:37;101491.19;;;6.25;100.00
80323;BME280;69636;52.372;13.610;2024-02-21T06:32:05;101490.13;;;6.40;100.00
80323;BME280;69636;52.372;13.610;2024-02-21T06:34:32;101490.78;;;6.31;100.00
80323;BME280;69636;52.372;13.610;2024-02-21T06:37:01;101485.72;;;6.28;100.00
80323;BME280;69636;52.372;13.610;2024-02-21T06:39:29;101480.97;;;6.33;100.00
80323;BME280;69636;52.372;13.610;2024-02-21T06:41:57;101477.91;;;6.39;100.00
80323;BME280;69636;52.372;13.610;2024-02-21T06:44:31;101478.31;;;6.33;100.00
80323;BME280;69636;52.372;13.610;2024-02-21T06:46:58;101474.22;;;6.29;100.00
80323;BME280;69636;52.372;13.610;2024-02-21T06:49:25;101484.75;;;6.41;100.00
80323;BME280;69636;52.372;13.610;2024-02-21T06:51:53;101483.41;;;6.36;100.00
80323;BME280;69636;52.372;13.610;2024-02-21T06:54:20;101482.75;;;6.45;100.00
80323;BME280;69636;52.372;13.610;2024-02-21T06:56:48;101482.28;;;6.51;100.00
80323;BME280;69636;52.372;13.610;2024-02-21T06:59:15;101483.25;;;6.50;100.00
80323;BME280;69636;52.372;13.610;2024-02-21T07:01:46;101480.59;;;6.50;100.00
80323;BME280;69636;52.372;13.610;2024-02-21T07:04:14;101480.38;;;6.53;100.00
80323;BME280;69636;52.372;13.610;2024-02-21T07:06:41;101489.44;;;6.62;100.00
80323;BME280;69636;52.372;13.610;2024-02-21T07:09:09;101477.31;;;6.59;100.00
80323;BME280;69636;52.372;13.610;2024-02-21T07:11:36;101486.91;;;6.60;100.00
80323;BME280;69636;52.372;13.610;2024-02-21T07:14:04;101486.91;;;6.60;100.00
80323;BME280;69636;52.372;13.610;2024-02-21T07:16:31;101494.50;;;6.65;100.00
80323;BME280;69636;52.372;13.610;2024-02-21T07:19:00;101487.97;;;6.70;100.00
80323;BME280;69636;52.372;13.610;2024-02-21T07:21:27;101495.69;;;6.61;100.00
80323;BME280;69636;52.372;13.610;2024-02-21T07:23:55;101500.84;;;6.62;100.00
80323;BME280;69636;52.372;13.610;2024-02-21T07:26:22;101487.34;;;6.67;100.00
80323;BME280;69636;52.372;13.610;2024-02-21T07:28:49;101502.09;;;6.69;100.00
80323;BME280;69636;52.372;13.610;2024-02-21T07:31:17;101491.75;;;6.66;100.00
80323;BME280;69636;52.372;13.610;2024-02-21T07:33:44;101491.75;;;6.66;100.00
80323;BME280;69636;52.372;13.610;2024-02-21T07:36:15;101488.91;;;6.69;100.00
80323;BME280;69636;52.372;13.610;2024-02-21T07:38:43;101495.88;;;6.70;100.00
80323;BME280;69636;52.372;13.610;2024-02-21T07:41:10;101492.06;;;6.74;100.00
80323;BME280;69636;52.372;13.610;2024-02-21T07:43:37;101487.50;;;6.76;100.00
80323;BME280;69636;52.372;13.610;2024-02-21T07:46:05;101486.78;;;6.74;100.00
80323;BME280;69636;52.372;13.610;2024-02-21T07:48:32;101485.84;;;6.75;100.00
80323;BME280;69636;52.372;13.610;2024-02-21T07:51:02;101488.22;;;6.78;100.00
80323;BME280;69636;52.372;13.610;2024-02-21T07:53:30;101482.06;;;6.91;100.00
80323;BME280;69636;52.372;13.610;2024-02-21T07:55:58;101482.28;;;6.88;100.00
80323;BME280;69636;52.372;13.610;2024-02-21T07:58:25;101486.22;;;6.82;100.00
80323;BME280;69636;52.372;13.610;2024-02-21T08:00:53;101484.09;;;6.87;100.00
80323;BME280;69636;52.372;13.610;2024-02-21T08:03:20;101481.00;;;6.93;100.00
80323;BME280;69636;52.372;13.610;2024-02-21T08:05:48;101471.09;;;7.08;100.00
80323;BME280;69636;52.372;13.610;2024-02-21T08:08:15;101471.84;;;7.10;100.00
80323;BME280;69636;52.372;13.610;2024-02-21T08:10:44;101472.06;;;7.07;100.00
80323;BME280;69636;52.372;13.610;2024-02-21T08:13:11;101479.34;;;7.03;100.00
80323;BME280;69636;52.372;13.610;2024-02-21T08:15:39;101468.91;;;7.02;100.00
80323;BME280;69636;52.372;13.610;2024-02-21T08:18:06;101458.75;;;7.08;100.00
80323;BME280;69636;52.372;13.610;2024-02-21T08:20:33;101451.91;;;7.06;100.00
80323;BME280;69636;52.372;13.610;2024-02-21T08:23:01;101450.38;;;7.14;100.00
80323;BME280;69636;52.372;13.610;2024-02-21T08:25:28;101458.91;;;7.18;100.00
80323;BME280;69636;52.372;13.610;2024-02-21T08:27:58;101454.16;;;7.23;100.00
80323;BME280;69636;52.372;13.610;2024-02-21T08:30:26;101456.91;;;7.22;100.00
80323;BME280;69636;52.372;13.610;2024-02-21T08:32:53;101456.19;;;7.31;100.00
80323;BME280;69636;52.372;13.610;2024-02-21T08:35:21;101455.84;;;7.35;100.00
80323;BME280;69636;52.372;13.610;2024-02-21T08:37:49;101453.44;;;7.32;100.00
80323;BME280;69636;52.372;13.610;2024-02-21T08:40:16;101454.66;;;7.39;100.00
80323;BME280;69636;52.372;13.610;2024-02-21T08:42:43;101451.06;;;7.40;100.00
80323;BME280;69636;52.372;13.610;2024-02-21T08:45:12;101453.97;;;7.48;100.00
80323;BME280;69636;52.372;13.610;2024-02-21T08:47:40;101444.03;;;7.52;100.00
80323;BME280;69636;52.372;13.610;2024-02-21T08:50:08;101455.44;;;7.53;100.00
80323;BME280;69636;52.372;13.610;2024-02-21T08:52:53;101448.81;;;7.58;100.00
80323;BME280;69636;52.372;13.610;2024-02-21T08:55:20;101445.81;;;7.63;100.00
80323;BME280;69636;52.372;13.610;2024-02-21T08:57:48;101444.78;;;7.76;100.00
80323;BME280;69636;52.372;13.610;2024-02-21T09:00:17;101441.66;;;7.94;100.00
80323;BME280;69636;52.372;13.610;2024-02-21T09:02:45;101446.84;;;7.95;100.00
80323;BME280;69636;52.372;13.610;2024-02-21T09:05:12;101454.75;;;7.95;100.00
80323;BME280;69636;52.372;13.610;2024-02-21T09:07:39;101449.72;;;8.03;100.00
80323;BME280;69636;52.372;13.610;2024-02-21T09:10:08;101455.75;;;8.05;100.00
80323;BME280;69636;52.372;13.610;2024-02-21T09:12:36;101458.84;;;8.10;100.00
80323;BME280;69636;52.372;13.610;2024-02-21T09:15:04;101464.75;;;8.03;100.00
80323;BME280;69636;52.372;13.610;2024-02-21T09:17:32;101457.41;;;8.06;100.00
80323;BME280;69636;52.372;13.610;2024-02-21T09:20:00;101450.69;;;8.02;100.00
80323;BME280;69636;52.372;13.610;2024-02-21T09:22:28;101453.78;;;8.07;100.00
80323;BME280;69636;52.372;13.610;2024-02-21T09:24:55;101452.13;;;8.17;100.00
80323;BME280;69636;52.372;13.610;2024-02-21T09:27:22;101450.44;;;8.39;100.00
80323;BME280;69636;52.372;13.610;2024-02-21T09:29:50;101446.78;;;8.62;100.00
80323;BME280;69636;52.372;13.610;2024-02-21T09:32:18;101445.34;;;8.58;100.00
80323;BME280;69636;52.372;13.610;2024-02-21T09:34:46;101453.03;;;8.72;100.00
80323;BME280;69636;52.372;13.610;2024-02-21T09:37:14;101445.06;;;8.83;100.00
80323;BME280;69636;52.372;13.610;2024-02-21T09:39:41;101443.66;;;8.79;100.00
80323;BME280;69636;52.372;13.610;2024-02-21T09:42:11;101433.91;;;8.69;100.00
80323;BME280;69636;52.372;13.610;2024-02-21T09:44:38;101424.34;;;8.89;100.00
80323;BME280;69636;52.372;13.610;2024-02-21T09:47:07;101424.56;;;8.97;100.00
80323;BME280;69636;52.372;13.610;2024-02-21T09:49:36;101421.69;;;8.89;100.00
80323;BME280;69636;52.372;13.610;2024-02-21T09:52:05;101420.06;;;9.08;100.00
80323;BME280;69636;52.372;13.610;2024-02-21T09:54:33;101413.59;;;9.22;100.00
80323;BME280;69636;52.372;13.610;2024-02-21T09:57:01;101423.47;;;9.20;100.00
80323;BME280;69636;52.372;13.610;2024-02-21T09:59:30;101420.44;;;9.04;100.00
80323;BME280;69636;52.372;13.610;2024-02-21T10:01:58;101424.19;;;9.22;100.00
80323;BME280;69636;52.372;13.610;2024-02-21T10:04:25;101427.59;;;9.13;100.00
80323;BME280;69636;52.372;13.610;2024-02-21T10:06:53;101428.56;;;9.12;100.00
80323;BME280;69636;52.372;13.610;2024-02-21T10:09:23;101436.09;;;9.28;100.00
80323;BME280;69636;52.372;13.610;2024-02-21T10:11:51;101427.22;;;9.17;100.00
80323;BME280;69636;52.372;13.610;2024-02-21T10:14:18;101426.72;;;9.24;100.00
80323;BME280;69636;52.372;13.610;2024-02-21T10:16:47;101425.41;;;9.18;100.00
80323;BME280;69636;52.372;13.610;2024-02-21T10:19:18;101420.63;;;9.12;100.00
80323;BME280;69636;52.372;13.610;2024-02-21T10:22:03;101416.28;;;9.11;100.00
80323;BME280;69636;52.372;13.610;2024-02-21T10:24:32;101415.66;;;9.18;100.00
80323;BME280;69636;52.372;13.610;2024-02-21T10:27:03;101427.81;;;9.21;100.00
80323;BME280;69636;52.372;13.610;2024-02-21T10:29:31;101420.72;;;9.22;100.00
80323;BME280;69636;52.372;13.610;2024-02-21T10:32:06;101415.06;;;9.36;100.00
80323;BME280;69636;52.372;13.610;2024-02-21T10:34:36;101422.91;;;9.37;100.00
80323;BME280;69636;52.372;13.610;2024-02-21T10:37:05;101426.22;;;9.30;100.00
80323;BME280;69636;52.372;13.610;2024-02-21T10:39:36;101421.75;;;9.30;100.00
80323;BME280;69636;52.372;13.610;2024-02-21T10:42:05;101417.88;;;9.34;100.00
80323;BME280;69636;52.372;13.610;2024-02-21T10:44:34;101418.72;;;9.35;100.00
80323;BME280;69636;52.372;13.610;2024-02-21T10:47:06;101425.03;;;9.43;100.00
80323;BME280;69636;52.372;13.610;2024-02-21T10:49:38;101404.28;;;9.48;100.00
80323;BME280;69636;52.372;13.610;2024-02-21T10:52:10;101411.03;;;9.52;100.00
80323;BME280;69636;52.372;13.610;2024-02-21T10:54:47;101404.25;;;9.60;100.00
80323;BME280;69636;52.372;13.610;2024-02-21T10:57:15;101407.41;;;9.53;100.00
80323;BME280;69636;52.372;13.610;2024-02-21T10:59:45;101394.84;;;9.56;100.00
80323;BME280;69636;52.372;13.610;2024-02-21T11:02:12;101400.41;;;9.52;100.00
80323;BME280;69636;52.372;13.610;2024-02-21T11:04:40;101397.81;;;9.62;100.00
80323;BME280;69636;52.372;13.610;2024-02-21T11:07:09;101398.22;;;9.58;100.00
80323;BME280;69636;52.372;13.610;2024-02-21T11:09:38;101395.09;;;9.73;100.00
80323;BME280;69636;52.372;13.610;2024-02-21T11:12:07;101392.75;;;9.80;100.00
80323;BME280;69636;52.372;13.610;2024-02-21T11:14:38;101391.19;;;9.77;99.41
80323;BME280;69636;52.372;13.610;2024-02-21T11:17:14;101382.53;;;9.75;99.42
80323;BME280;69636;52.372;13.610;2024-02-21T11:19:42;101374.63;;;9.85;99.06
80323;BME280;69636;52.372;13.610;2024-02-21T11:22:14;101369.03;;;9.88;98.44
80323;BME280;69636;52.372;13.610;2024-02-21T11:24:42;101358.50;;;10.07;97.98
80323;BME280;69636;52.372;13.610;2024-02-21T11:27:12;101359.13;;;10.20;98.86
80323;BME280;69636;52.372;13.610;2024-02-21T11:29:40;101363.78;;;10.38;98.45
80323;BME280;69636;52.372;13.610;2024-02-21T11:32:09;101346.88;;;10.48;96.94
80323;BME280;69636;52.372;13.610;2024-02-21T11:34:36;101354.56;;;10.32;97.18
80323;BME280;69636;52.372;13.610;2024-02-21T11:37:13;101355.00;;;10.76;95.97
80323;BME280;69636;52.372;13.610;2024-02-21T11:39:40;101331.94;;;11.52;92.58
80323;BME280;69636;52.372;13.610;2024-02-21T11:42:08;101337.63;;;12.21;87.78
80323;BME280;69636;52.372;13.610;2024-02-21T11:44:37;101326.84;;;11.68;88.28
80323;BME280;69636;52.372;13.610;2024-02-21T11:47:05;101313.06;;;12.10;87.66
80323;BME280;69636;52.372;13.610;2024-02-21T11:49:36;101316.78;;;11.62;88.43
80323;BME280;69636;52.372;13.610;2024-02-21T11:52:04;101303.88;;;12.22;87.06
80323;BME280;69636;52.372;13.610;2024-02-21T11:54:32;101296.91;;;12.21;86.50
80323;BME280;69636;52.372;13.610;2024-02-21T11:57:00;101294.69;;;12.16;85.44
80323;BME280;69636;52.372;13.610;2024-02-21T11:59:30;101287.13;;;11.57;87.35
80323;BME280;69636;52.372;13.610;2024-02-21T12:01:59;101286.03;;;11.50;87.83
80323;BME280;69636;52.372;13.610;2024-02-21T12:04:27;101288.09;;;11.29;88.59
80323;BME280;69636;52.372;13.610;2024-02-21T12:06:54;101281.28;;;11.07;90.53
80323;BME280;69636;52.372;13.610;2024-02-21T12:09:22;101277.78;;;11.16;89.84
80323;BME280;69636;52.372;13.610;2024-02-21T12:11:56;101267.28;;;11.51;89.18
80323;BME280;69636;52.372;13.610;2024-02-21T12:14:24;101269.53;;;11.83;88.02
80323;BME280;69636;52.372;13.610;2024-02-21T12:16:53;101260.31;;;12.41;85.39
80323;BME280;69636;52.372;13.610;2024-02-21T12:19:22;101264.72;;;12.50;83.06
80323;BME280;69636;52.372;13.610;2024-02-21T12:21:50;101256.25;;;13.16;80.46
80323;BME280;69636;52.372;13.610;2024-02-21T12:24:21;101257.56;;;12.33;82.55
80323;BME280;69636;52.372;13.610;2024-02-21T12:26:49;101250.47;;;13.29;79.35
80323;BME280;69636;52.372;13.610;2024-02-21T12:29:16;101240.59;;;14.13;74.52
80323;BME280;69636;52.372;13.610;2024-02-21T12:31:44;101240.41;;;13.48;75.05
80323;BME280;69636;52.372;13.610;2024-02-21T12:34:15;101233.53;;;12.24;81.94
80323;BME280;69636;52.372;13.610;2024-02-21T12:36:44;101232.13;;;11.57;85.57
80323;BME280;69636;52.372;13.610;2024-02-21T12:39:12;101232.22;;;11.11;88.29
80323;BME280;69636;52.372;13.610;2024-02-21T12:41:39;101231.59;;;10.80;90.04
80323;BME280;69636;52.372;13.610;2024-02-21T12:44:07;101235.97;;;10.62;90.33